Terminal Aerodrome Forecast
Issued by NWS Jackson, MS

Home | Current Version | Previous Version | Text Only | Print | Product List | Glossary On
Versions: 1 2 3 4 5 6 7 8 9 10 11 12 13 14
000
FTUS44 KJAN 272320
TAFGWO
TAF
KGWO 272320Z 2800/2824 22010KT P6SM FEW050
     FM280700 27005KT P6SM OVC015
     FM280900 32004KT 4SM BR OVC009
     FM281400 06006KT P6SM OVC015
     FM281600 06005KT P6SM OVC025
     FM281800 05006KT P6SM SCT050=

USA.gov is the U.S. government's official web portal to all federal, state and local government web resources and services.